Terminal Aerodrome Forecast
Issued by NWS Bismarck, ND

Home | Current Version | Previous Version | Text Only | Print | Product List | Glossary Off
Versions: 1 2 3 4 5 6 7 8 9 10 11 12 13 14 15 16 17 18

000
FTUS43 KBIS 211131
TAFBIS
TAF
KBIS 211131Z 2112/2212 29006KT P6SM SCT250
     FM211600 32011KT P6SM SCT070
     FM220000 34013KT P6SM BKN090
     FM220200 32004KT P6SM BKN100=

USA.gov is the U.S. government's official web portal to all federal, state and local government web resources and services.